sensor_id;sensor_type;location;lat;lon;timestamp;P1;durP1;ratioP1;P2;durP2;ratioP2
47103;SDS011;32853;52.164;5.400;2024-01-30T00:00:01;13.75;;;6.82;;
47103;SDS011;32853;52.164;5.400;2024-01-30T00:02:40;15.40;;;7.65;;
47103;SDS011;32853;52.164;5.400;2024-01-30T00:05:09;13.55;;;6.90;;
47103;SDS011;32853;52.164;5.400;2024-01-30T00:07:38;11.90;;;6.72;;
47103;SDS011;32853;52.164;5.400;2024-01-30T00:10:06;11.35;;;6.15;;
47103;SDS011;32853;52.164;5.400;2024-01-30T00:12:34;14.02;;;7.18;;
47103;SDS011;32853;52.164;5.400;2024-01-30T00:15:00;13.18;;;7.03;;
47103;SDS011;32853;52.164;5.400;2024-01-30T00:17:26;11.20;;;6.88;;
47103;SDS011;32853;52.164;5.400;2024-01-30T00:19:51;12.48;;;6.25;;
47103;SDS011;32853;52.164;5.400;2024-01-30T00:22:22;13.05;;;7.18;;
47103;SDS011;32853;52.164;5.400;2024-01-30T00:24:48;15.35;;;8.18;;
47103;SDS011;32853;52.164;5.400;2024-01-30T00:27:14;11.80;;;6.75;;
47103;SDS011;32853;52.164;5.400;2024-01-30T00:29:39;13.82;;;8.02;;
47103;SDS011;32853;52.164;5.400;2024-01-30T00:32:07;14.77;;;7.65;;
47103;SDS011;32853;52.164;5.400;2024-01-30T00:34:33;12.20;;;6.45;;
47103;SDS011;32853;52.164;5.400;2024-01-30T00:36:58;15.05;;;7.00;;
47103;SDS011;32853;52.164;5.400;2024-01-30T00:39:24;14.10;;;6.88;;
47103;SDS011;32853;52.164;5.400;2024-01-30T00:41:52;11.32;;;6.88;;
47103;SDS011;32853;52.164;5.400;2024-01-30T00:44:17;11.68;;;6.90;;
47103;SDS011;32853;52.164;5.400;2024-01-30T00:46:50;13.88;;;7.55;;
47103;SDS011;32853;52.164;5.400;2024-01-30T00:49:18;15.18;;;7.03;;
47103;SDS011;32853;52.164;5.400;2024-01-30T00:51:49;19.33;;;7.80;;
47103;SDS011;32853;52.164;5.400;2024-01-30T00:54:14;12.75;;;7.53;;
47103;SDS011;32853;52.164;5.400;2024-01-30T00:56:45;13.80;;;7.90;;
47103;SDS011;32853;52.164;5.400;2024-01-30T00:59:14;13.85;;;7.03;;
47103;SDS011;32853;52.164;5.400;2024-01-30T01:01:43;13.32;;;7.47;;
47103;SDS011;32853;52.164;5.400;2024-01-30T01:04:19;15.70;;;8.77;;
47103;SDS011;32853;52.164;5.400;2024-01-30T01:06:54;19.67;;;7.57;;
47103;SDS011;32853;52.164;5.400;2024-01-30T01:09:23;17.50;;;8.52;;
47103;SDS011;32853;52.164;5.400;2024-01-30T01:11:56;17.95;;;7.53;;
47103;SDS011;32853;52.164;5.400;2024-01-30T01:19:30;18.42;;;6.90;;
47103;SDS011;32853;52.164;5.400;2024-01-30T01:21:55;12.05;;;6.72;;
47103;SDS011;32853;52.164;5.400;2024-01-30T01:24:20;16.10;;;8.60;;
47103;SDS011;32853;52.164;5.400;2024-01-30T01:26:47;15.00;;;8.57;;
47103;SDS011;32853;52.164;5.400;2024-01-30T01:29:12;12.85;;;6.97;;
47103;SDS011;32853;52.164;5.400;2024-01-30T01:31:38;18.42;;;8.45;;
47103;SDS011;32853;52.164;5.400;2024-01-30T01:34:15;16.30;;;7.80;;
47103;SDS011;32853;52.164;5.400;2024-01-30T01:36:43;13.98;;;7.38;;
47103;SDS011;32853;52.164;5.400;2024-01-30T01:39:09;13.65;;;7.93;;
47103;SDS011;32853;52.164;5.400;2024-01-30T01:44:07;11.05;;;7.35;;
47103;SDS011;32853;52.164;5.400;2024-01-30T01:46:32;14.55;;;6.82;;
47103;SDS011;32853;52.164;5.400;2024-01-30T01:48:59;12.25;;;6.32;;
47103;SDS011;32853;52.164;5.400;2024-01-30T01:51:31;15.05;;;7.32;;
47103;SDS011;32853;52.164;5.400;2024-01-30T01:54:00;13.95;;;7.25;;
47103;SDS011;32853;52.164;5.400;2024-01-30T01:56:28;17.55;;;6.22;;
47103;SDS011;32853;52.164;5.400;2024-01-30T01:58:59;16.23;;;7.00;;
47103;SDS011;32853;52.164;5.400;2024-01-30T02:01:32;14.20;;;7.85;;
47103;SDS011;32853;52.164;5.400;2024-01-30T02:04:00;12.57;;;6.60;;
47103;SDS011;32853;52.164;5.400;2024-01-30T02:06:27;13.38;;;6.90;;
47103;SDS011;32853;52.164;5.400;2024-01-30T02:08:53;15.25;;;7.43;;
47103;SDS011;32853;52.164;5.400;2024-01-30T02:11:34;12.50;;;6.95;;
47103;SDS011;32853;52.164;5.400;2024-01-30T02:14:11;11.40;;;6.70;;
47103;SDS011;32853;52.164;5.400;2024-01-30T02:16:54;9.07;;;6.53;;
47103;SDS011;32853;52.164;5.400;2024-01-30T02:19:35;15.10;;;7.43;;
47103;SDS011;32853;52.164;5.400;2024-01-30T02:22:01;13.32;;;6.32;;
47103;SDS011;32853;52.164;5.400;2024-01-30T02:24:29;15.85;;;7.45;;
47103;SDS011;32853;52.164;5.400;2024-01-30T02:26:59;12.48;;;6.75;;
47103;SDS011;32853;52.164;5.400;2024-01-30T02:29:36;13.60;;;6.57;;
47103;SDS011;32853;52.164;5.400;2024-01-30T02:32:04;10.25;;;6.30;;
47103;SDS011;32853;52.164;5.400;2024-01-30T02:37:21;10.57;;;5.43;;
47103;SDS011;32853;52.164;5.400;2024-01-30T02:39:47;8.45;;;5.63;;
47103;SDS011;32853;52.164;5.400;2024-01-30T02:42:12;11.98;;;5.68;;
47103;SDS011;32853;52.164;5.400;2024-01-30T02:44:37;16.25;;;7.13;;
47103;SDS011;32853;52.164;5.400;2024-01-30T02:47:03;10.32;;;6.20;;
47103;SDS011;32853;52.164;5.400;2024-01-30T02:52:20;10.63;;;6.05;;
47103;SDS011;32853;52.164;5.400;2024-01-30T02:54:47;12.13;;;5.82;;
47103;SDS011;32853;52.164;5.400;2024-01-30T02:57:13;12.85;;;5.97;;
47103;SDS011;32853;52.164;5.400;2024-01-30T02:59:38;10.57;;;5.65;;
47103;SDS011;32853;52.164;5.400;2024-01-30T03:02:03;11.07;;;5.97;;
47103;SDS011;32853;52.164;5.400;2024-01-30T03:04:29;10.75;;;5.85;;
47103;SDS011;32853;52.164;5.400;2024-01-30T03:06:55;11.05;;;6.72;;
47103;SDS011;32853;52.164;5.400;2024-01-30T03:09:20;13.38;;;7.55;;
47103;SDS011;32853;52.164;5.400;2024-01-30T03:11:46;15.23;;;8.30;;
47103;SDS011;32853;52.164;5.400;2024-01-30T03:14:12;16.45;;;7.65;;
47103;SDS011;32853;52.164;5.400;2024-01-30T03:16:37;16.65;;;7.93;;
47103;SDS011;32853;52.164;5.400;2024-01-30T03:19:03;18.25;;;8.60;;
47103;SDS011;32853;52.164;5.400;2024-01-30T03:21:34;16.33;;;8.63;;
47103;SDS011;32853;52.164;5.400;2024-01-30T03:24:02;18.02;;;8.95;;
47103;SDS011;32853;52.164;5.400;2024-01-30T03:26:29;15.38;;;9.10;;
47103;SDS011;32853;52.164;5.400;2024-01-30T03:28:55;19.95;;;8.75;;
47103;SDS011;32853;52.164;5.400;2024-01-30T03:31:20;18.98;;;9.07;;
47103;SDS011;32853;52.164;5.400;2024-01-30T03:33:46;17.63;;;8.75;;
47103;SDS011;32853;52.164;5.400;2024-01-30T03:36:11;16.08;;;7.95;;
47103;SDS011;32853;52.164;5.400;2024-01-30T03:38:37;15.55;;;8.30;;
47103;SDS011;32853;52.164;5.400;2024-01-30T03:41:02;18.08;;;8.85;;
47103;SDS011;32853;52.164;5.400;2024-01-30T03:43:28;18.42;;;9.23;;
47103;SDS011;32853;52.164;5.400;2024-01-30T03:45:53;18.02;;;8.13;;
47103;SDS011;32853;52.164;5.400;2024-01-30T03:48:19;12.48;;;7.35;;
47103;SDS011;32853;52.164;5.400;2024-01-30T03:50:46;15.57;;;7.38;;
47103;SDS011;32853;52.164;5.400;2024-01-30T03:53:11;11.10;;;7.57;;
47103;SDS011;32853;52.164;5.400;2024-01-30T03:58:28;15.30;;;7.00;;
47103;SDS011;32853;52.164;5.400;2024-01-30T04:00:53;17.13;;;7.10;;
47103;SDS011;32853;52.164;5.400;2024-01-30T04:03:18;11.48;;;6.47;;
47103;SDS011;32853;52.164;5.400;2024-01-30T04:05:44;11.43;;;6.20;;
47103;SDS011;32853;52.164;5.400;2024-01-30T04:08:10;12.82;;;6.28;;
47103;SDS011;32853;52.164;5.400;2024-01-30T04:10:45;10.93;;;5.57;;
47103;SDS011;32853;52.164;5.400;2024-01-30T04:13:11;10.32;;;6.97;;
47103;SDS011;32853;52.164;5.400;2024-01-30T04:15:37;16.00;;;7.32;;
47103;SDS011;32853;52.164;5.400;2024-01-30T04:18:02;13.32;;;6.20;;
47103;SDS011;32853;52.164;5.400;2024-01-30T04:20:33;13.48;;;6.18;;
47103;SDS011;32853;52.164;5.400;2024-01-30T04:22:58;11.43;;;5.90;;
47103;SDS011;32853;52.164;5.400;2024-01-30T04:27:53;14.00;;;5.43;;
47103;SDS011;32853;52.164;5.400;2024-01-30T04:30:19;9.93;;;6.20;;
47103;SDS011;32853;52.164;5.400;2024-01-30T04:32:50;11.82;;;6.05;;
47103;SDS011;32853;52.164;5.400;2024-01-30T04:35:16;9.88;;;6.13;;
47103;SDS011;32853;52.164;5.400;2024-01-30T04:37:49;9.07;;;5.35;;
47103;SDS011;32853;52.164;5.400;2024-01-30T04:42:40;14.65;;;5.32;;
47103;SDS011;32853;52.164;5.400;2024-01-30T04:45:06;10.25;;;5.25;;
47103;SDS011;32853;52.164;5.400;2024-01-30T04:47:31;14.60;;;6.28;;
47103;SDS011;32853;52.164;5.400;2024-01-30T04:49:59;8.10;;;4.60;;
47103;SDS011;32853;52.164;5.400;2024-01-30T04:52:25;12.32;;;5.07;;
47103;SDS011;32853;52.164;5.400;2024-01-30T04:54:52;10.95;;;4.53;;
47103;SDS011;32853;52.164;5.400;2024-01-30T04:57:22;12.65;;;5.97;;
47103;SDS011;32853;52.164;5.400;2024-01-30T04:59:47;11.00;;;4.72;;
47103;SDS011;32853;52.164;5.400;2024-01-30T05:02:19;8.90;;;5.13;;
47103;SDS011;32853;52.164;5.400;2024-01-30T05:04:46;9.60;;;4.87;;
47103;SDS011;32853;52.164;5.400;2024-01-30T05:07:12;13.60;;;6.03;;
47103;SDS011;32853;52.164;5.400;2024-01-30T05:09:37;14.55;;;5.75;;
47103;SDS011;32853;52.164;5.400;2024-01-30T05:12:14;14.27;;;5.22;;
47103;SDS011;32853;52.164;5.400;2024-01-30T05:14:42;9.00;;;4.93;;
47103;SDS011;32853;52.164;5.400;2024-01-30T05:17:07;9.25;;;5.25;;
47103;SDS011;32853;52.164;5.400;2024-01-30T05:19:37;11.45;;;5.72;;
47103;SDS011;32853;52.164;5.400;2024-01-30T05:22:03;11.45;;;5.43;;
47103;SDS011;32853;52.164;5.400;2024-01-30T05:24:41;10.18;;;4.53;;
47103;SDS011;32853;52.164;5.400;2024-01-30T05:27:10;8.55;;;4.95;;
47103;SDS011;32853;52.164;5.400;2024-01-30T05:32:12;11.68;;;5.90;;
47103;SDS011;32853;52.164;5.400;2024-01-30T05:34:49;12.98;;;5.57;;
47103;SDS011;32853;52.164;5.400;2024-01-30T05:37:16;10.23;;;5.13;;
47103;SDS011;32853;52.164;5.400;2024-01-30T05:39:43;15.48;;;5.50;;
47103;SDS011;32853;52.164;5.400;2024-01-30T05:42:09;6.78;;;4.72;;
47103;SDS011;32853;52.164;5.400;2024-01-30T05:44:37;12.43;;;4.60;;
47103;SDS011;32853;52.164;5.400;2024-01-30T05:47:03;7.82;;;4.97;;
47103;SDS011;32853;52.164;5.400;2024-01-30T05:52:15;9.75;;;4.85;;
47103;SDS011;32853;52.164;5.400;2024-01-30T05:54:49;14.35;;;5.53;;
47103;SDS011;32853;52.164;5.400;2024-01-30T05:57:21;10.93;;;4.75;;
47103;SDS011;32853;52.164;5.400;2024-01-30T05:59:47;13.73;;;6.10;;
47103;SDS011;32853;52.164;5.400;2024-01-30T06:02:13;14.15;;;6.15;;
47103;SDS011;32853;52.164;5.400;2024-01-30T06:04:39;7.35;;;4.68;;
47103;SDS011;32853;52.164;5.400;2024-01-30T06:07:14;7.90;;;5.22;;
47103;SDS011;32853;52.164;5.400;2024-01-30T06:12:19;9.50;;;5.35;;
47103;SDS011;32853;52.164;5.400;2024-01-30T06:14:45;8.13;;;5.07;;
47103;SDS011;32853;52.164;5.400;2024-01-30T06:17:10;10.70;;;4.45;;
47103;SDS011;32853;52.164;5.400;2024-01-30T06:19:37;7.45;;;4.63;;
47103;SDS011;32853;52.164;5.400;2024-01-30T06:22:05;13.85;;;5.53;;
47103;SDS011;32853;52.164;5.400;2024-01-30T06:24:30;11.98;;;5.25;;
47103;SDS011;32853;52.164;5.400;2024-01-30T06:27:02;8.63;;;5.03;;
47103;SDS011;32853;52.164;5.400;2024-01-30T06:29:31;7.35;;;4.55;;
47103;SDS011;32853;52.164;5.400;2024-01-30T06:34:31;8.98;;;4.82;;
47103;SDS011;32853;52.164;5.400;2024-01-30T06:36:56;14.82;;;5.55;;
47103;SDS011;32853;52.164;5.400;2024-01-30T06:39:22;11.20;;;4.35;;
47103;SDS011;32853;52.164;5.400;2024-01-30T06:41:52;10.70;;;5.45;;
47103;SDS011;32853;52.164;5.400;2024-01-30T06:44:21;11.13;;;5.07;;
47103;SDS011;32853;52.164;5.400;2024-01-30T06:46:49;9.68;;;5.57;;
47103;SDS011;32853;52.164;5.400;2024-01-30T06:49:15;17.35;;;5.32;;
47103;SDS011;32853;52.164;5.400;2024-01-30T06:51:40;7.32;;;3.72;;
47103;SDS011;32853;52.164;5.400;2024-01-30T06:54:07;9.68;;;5.15;;
47103;SDS011;32853;52.164;5.400;2024-01-30T06:56:43;7.75;;;4.50;;
47103;SDS011;32853;52.164;5.400;2024-01-30T06:59:08;10.60;;;4.80;;
47103;SDS011;32853;52.164;5.400;2024-01-30T07:01:33;11.52;;;5.18;;
47103;SDS011;32853;52.164;5.400;2024-01-30T07:04:02;8.35;;;4.95;;
47103;SDS011;32853;52.164;5.400;2024-01-30T07:06:30;13.40;;;5.22;;
47103;SDS011;32853;52.164;5.400;2024-01-30T07:08:55;11.02;;;5.22;;
47103;SDS011;32853;52.164;5.400;2024-01-30T07:11:24;11.25;;;5.28;;
47103;SDS011;32853;52.164;5.400;2024-01-30T07:13:54;9.80;;;4.53;;
47103;SDS011;32853;52.164;5.400;2024-01-30T07:19:09;10.05;;;4.50;;
47103;SDS011;32853;52.164;5.400;2024-01-30T07:21:34;11.50;;;5.82;;
47103;SDS011;32853;52.164;5.400;2024-01-30T07:24:00;6.95;;;4.70;;
47103;SDS011;32853;52.164;5.400;2024-01-30T07:26:28;20.25;;;4.75;;
47103;SDS011;32853;52.164;5.400;2024-01-30T07:28:57;7.65;;;4.25;;
47103;SDS011;32853;52.164;5.400;2024-01-30T07:31:22;9.25;;;5.25;;
47103;SDS011;32853;52.164;5.400;2024-01-30T07:33:48;17.10;;;5.18;;
47103;SDS011;32853;52.164;5.400;2024-01-30T07:36:14;12.48;;;4.90;;
47103;SDS011;32853;52.164;5.400;2024-01-30T07:38:39;8.32;;;4.60;;
47103;SDS011;32853;52.164;5.400;2024-01-30T07:41:06;14.50;;;4.53;;
47103;SDS011;32853;52.164;5.400;2024-01-30T07:43:33;11.45;;;4.85;;
47103;SDS011;32853;52.164;5.400;2024-01-30T07:46:10;10.88;;;4.18;;
47103;SDS011;32853;52.164;5.400;2024-01-30T07:48:36;11.88;;;4.65;;
47103;SDS011;32853;52.164;5.400;2024-01-30T07:51:01;10.10;;;4.95;;
47103;SDS011;32853;52.164;5.400;2024-01-30T07:53:35;9.50;;;4.72;;
47103;SDS011;32853;52.164;5.400;2024-01-30T07:56:05;12.45;;;5.13;;
47103;SDS011;32853;52.164;5.400;2024-01-30T07:58:31;11.13;;;4.90;;
47103;SDS011;32853;52.164;5.400;2024-01-30T08:01:02;13.00;;;5.88;;
47103;SDS011;32853;52.164;5.400;2024-01-30T08:03:30;10.17;;;4.43;;
47103;SDS011;32853;52.164;5.400;2024-01-30T08:05:58;9.15;;;5.22;;
47103;SDS011;32853;52.164;5.400;2024-01-30T08:08:24;10.73;;;4.90;;
47103;SDS011;32853;52.164;5.400;2024-01-30T08:10:51;10.25;;;4.78;;
47103;SDS011;32853;52.164;5.400;2024-01-30T08:13:17;9.02;;;4.47;;
47103;SDS011;32853;52.164;5.400;2024-01-30T08:15:42;9.60;;;5.43;;
47103;SDS011;32853;52.164;5.400;2024-01-30T08:18:10;15.55;;;4.38;;
47103;SDS011;32853;52.164;5.400;2024-01-30T08:20:36;9.27;;;4.38;;
47103;SDS011;32853;52.164;5.400;2024-01-30T08:23:02;11.73;;;4.72;;
47103;SDS011;32853;52.164;5.400;2024-01-30T08:25:32;11.45;;;5.15;;
47103;SDS011;32853;52.164;5.400;2024-01-30T08:27:58;10.68;;;4.05;;
47103;SDS011;32853;52.164;5.400;2024-01-30T08:33:18;7.43;;;4.25;;
47103;SDS011;32853;52.164;5.400;2024-01-30T08:35:46;13.18;;;3.45;;
47103;SDS011;32853;52.164;5.400;2024-01-30T08:38:15;12.45;;;4.57;;
47103;SDS011;32853;52.164;5.400;2024-01-30T08:40:55;16.25;;;4.80;;
47103;SDS011;32853;52.164;5.400;2024-01-30T08:43:21;11.90;;;4.53;;
47103;SDS011;32853;52.164;5.400;2024-01-30T08:45:46;14.70;;;3.85;;
47103;SDS011;32853;52.164;5.400;2024-01-30T08:48:12;11.63;;;5.63;;
47103;SDS011;32853;52.164;5.400;2024-01-30T08:50:42;11.32;;;5.28;;
47103;SDS011;32853;52.164;5.400;2024-01-30T08:53:08;13.13;;;5.25;;
47103;SDS011;32853;52.164;5.400;2024-01-30T08:55:33;6.00;;;4.70;;
47103;SDS011;32853;52.164;5.400;2024-01-30T08:57:59;8.35;;;4.07;;
47103;SDS011;32853;52.164;5.400;2024-01-30T09:00:25;12.65;;;5.07;;
47103;SDS011;32853;52.164;5.400;2024-01-30T09:02:50;11.77;;;4.53;;
47103;SDS011;32853;52.164;5.400;2024-01-30T09:05:17;13.50;;;5.00;;
47103;SDS011;32853;52.164;5.400;2024-01-30T09:07:42;16.08;;;4.82;;
47103;SDS011;32853;52.164;5.400;2024-01-30T09:10:08;15.43;;;5.72;;
47103;SDS011;32853;52.164;5.400;2024-01-30T09:12:36;12.23;;;4.20;;
47103;SDS011;32853;52.164;5.400;2024-01-30T09:15:02;16.15;;;4.82;;
47103;SDS011;32853;52.164;5.400;2024-01-30T09:17:28;18.92;;;4.00;;
47103;SDS011;32853;52.164;5.400;2024-01-30T09:19:59;15.60;;;4.30;;
47103;SDS011;32853;52.164;5.400;2024-01-30T09:22:26;13.63;;;5.55;;
47103;SDS011;32853;52.164;5.400;2024-01-30T09:24:51;13.85;;;4.65;;
47103;SDS011;32853;52.164;5.400;2024-01-30T09:27:17;13.63;;;5.03;;
47103;SDS011;32853;52.164;5.400;2024-01-30T09:30:01;16.38;;;5.82;;
47103;SDS011;32853;52.164;5.400;2024-01-30T09:32:34;13.27;;;4.47;;
47103;SDS011;32853;52.164;5.400;2024-01-30T09:34:59;14.27;;;4.47;;
47103;SDS011;32853;52.164;5.400;2024-01-30T09:37:25;8.13;;;4.93;;
47103;SDS011;32853;52.164;5.400;2024-01-30T09:39:50;6.50;;;4.30;;
47103;SDS011;32853;52.164;5.400;2024-01-30T09:45:03;6.82;;;4.25;;
47103;SDS011;32853;52.164;5.400;2024-01-30T09:50:23;15.10;;;4.97;;
47103;SDS011;32853;52.164;5.400;2024-01-30T09:52:50;8.88;;;4.22;;
47103;SDS011;32853;52.164;5.400;2024-01-30T09:55:27;10.40;;;4.20;;
47103;SDS011;32853;52.164;5.400;2024-01-30T09:57:53;16.05;;;5.10;;
47103;SDS011;32853;52.164;5.400;2024-01-30T10:00:18;10.50;;;3.67;;
47103;SDS011;32853;52.164;5.400;2024-01-30T10:02:44;16.63;;;4.25;;
47103;SDS011;32853;52.164;5.400;2024-01-30T10:05:10;9.73;;;4.85;;
47103;SDS011;32853;52.164;5.400;2024-01-30T10:07:55;9.10;;;4.72;;
47103;SDS011;32853;52.164;5.400;2024-01-30T10:10:22;17.95;;;4.93;;
47103;SDS011;32853;52.164;5.400;2024-01-30T10:12:48;10.00;;;4.63;;
47103;SDS011;32853;52.164;5.400;2024-01-30T10:15:14;8.35;;;4.72;;
47103;SDS011;32853;52.164;5.400;2024-01-30T10:17:40;14.75;;;4.80;;
47103;SDS011;32853;52.164;5.400;2024-01-30T10:20:05;13.77;;;4.65;;
47103;SDS011;32853;52.164;5.400;2024-01-30T10:22:33;23.23;;;5.28;;
47103;SDS011;32853;52.164;5.400;2024-01-30T10:25:00;8.52;;;4.28;;
47103;SDS011;32853;52.164;5.400;2024-01-30T10:27:26;10.40;;;5.07;;
47103;SDS011;32853;52.164;5.400;2024-01-30T10:29:52;13.95;;;5.28;;
47103;SDS011;32853;52.164;5.400;2024-01-30T10:32:28;10.68;;;4.25;;
47103;SDS011;32853;52.164;5.400;2024-01-30T10:34:53;13.93;;;4.82;;
47103;SDS011;32853;52.164;5.400;2024-01-30T10:40:02;10.60;;;4.90;;
47103;SDS011;32853;52.164;5.400;2024-01-30T10:42:31;13.27;;;4.68;;
47103;SDS011;32853;52.164;5.400;2024-01-30T10:45:10;10.27;;;4.70;;
47103;SDS011;32853;52.164;5.400;2024-01-30T10:47:43;6.38;;;2.80;;
47103;SDS011;32853;52.164;5.400;2024-01-30T10:50:15;10.13;;;4.70;;
47103;SDS011;32853;52.164;5.400;2024-01-30T10:52:41;15.27;;;4.65;;
47103;SDS011;32853;52.164;5.400;2024-01-30T10:55:09;12.88;;;4.75;;
47103;SDS011;32853;52.164;5.400;2024-01-30T10:57:35;11.02;;;4.75;;
47103;SDS011;32853;52.164;5.400;2024-01-30T11:00:07;15.25;;;5.07;;
47103;SDS011;32853;52.164;5.400;2024-01-30T11:02:42;7.35;;;4.30;;
47103;SDS011;32853;52.164;5.400;2024-01-30T11:05:10;10.45;;;4.07;;
47103;SDS011;32853;52.164;5.400;2024-01-30T11:07:38;7.97;;;3.90;;
47103;SDS011;32853;52.164;5.400;2024-01-30T11:10:11;9.05;;;4.18;;
47103;SDS011;32853;52.164;5.400;2024-01-30T11:15:24;12.75;;;4.25;;
47103;SDS011;32853;52.164;5.400;2024-01-30T11:17:52;11.18;;;2.70;;
47103;SDS011;32853;52.164;5.400;2024-01-30T11:23:14;7.65;;;2.20;;
47103;SDS011;32853;52.164;5.400;2024-01-30T11:25:39;12.43;;;3.03;;
47103;SDS011;32853;52.164;5.400;2024-01-30T11:28:04;10.93;;;3.00;;
47103;SDS011;32853;52.164;5.400;2024-01-30T11:30:31;6.43;;;1.80;;
47103;SDS011;32853;52.164;5.400;2024-01-30T11:33:08;2.30;;;1.33;;
47103;SDS011;32853;52.164;5.400;2024-01-30T11:35:40;10.80;;;1.35;;
47103;SDS011;32853;52.164;5.400;2024-01-30T11:38:07;5.72;;;1.20;;
47103;SDS011;32853;52.164;5.400;2024-01-30T11:40:37;7.10;;;1.45;;
47103;SDS011;32853;52.164;5.400;2024-01-30T11:43:06;3.40;;;1.48;;
47103;SDS011;32853;52.164;5.400;2024-01-30T11:45:33;3.10;;;0.85;;
47103;SDS011;32853;52.164;5.400;2024-01-30T11:47:59;5.18;;;1.02;;
47103;SDS011;32853;52.164;5.400;2024-01-30T11:50:32;5.82;;;1.75;;
47103;SDS011;32853;52.164;5.400;2024-01-30T11:52:59;3.78;;;1.13;;
47103;SDS011;32853;52.164;5.400;2024-01-30T11:55:25;7.32;;;0.82;;
47103;SDS011;32853;52.164;5.400;2024-01-30T11:57:50;2.97;;;0.90;;
47103;SDS011;32853;52.164;5.400;2024-01-30T12:00:19;4.55;;;0.70;;
47103;SDS011;32853;52.164;5.400;2024-01-30T12:02:53;5.13;;;0.60;;
47103;SDS011;32853;52.164;5.400;2024-01-30T12:05:24;1.35;;;0.52;;
47103;SDS011;32853;52.164;5.400;2024-01-30T12:07:50;3.65;;;0.60;;
47103;SDS011;32853;52.164;5.400;2024-01-30T12:10:16;4.45;;;0.70;;
47103;SDS011;32853;52.164;5.400;2024-01-30T12:12:43;4.82;;;0.90;;
47103;SDS011;32853;52.164;5.400;2024-01-30T12:15:15;5.72;;;0.80;;
47103;SDS011;32853;52.164;5.400;2024-01-30T12:17:41;7.13;;;1.20;;
47103;SDS011;32853;52.164;5.400;2024-01-30T12:20:19;4.35;;;0.73;;
47103;SDS011;32853;52.164;5.400;2024-01-30T12:22:54;3.08;;;1.20;;
47103;SDS011;32853;52.164;5.400;2024-01-30T12:25:20;4.22;;;1.10;;
47103;SDS011;32853;52.164;5.400;2024-01-30T12:27:48;3.88;;;1.10;;
47103;SDS011;32853;52.164;5.400;2024-01-30T12:30:20;10.88;;;1.45;;
47103;SDS011;32853;52.164;5.400;2024-01-30T12:32:46;6.00;;;1.27;;
47103;SDS011;32853;52.164;5.400;2024-01-30T12:35:14;5.72;;;1.25;;
47103;SDS011;32853;52.164;5.400;2024-01-30T12:37:48;6.80;;;0.98;;
47103;SDS011;32853;52.164;5.400;2024-01-30T12:40:15;2.33;;;1.00;;
47103;SDS011;32853;52.164;5.400;2024-01-30T12:42:45;5.38;;;1.20;;
47103;SDS011;32853;52.164;5.400;2024-01-30T12:45:18;3.80;;;0.80;;
47103;SDS011;32853;52.164;5.400;2024-01-30T12:47:49;3.80;;;1.50;;
47103;SDS011;32853;52.164;5.400;2024-01-30T12:50:14;1.85;;;0.80;;
47103;SDS011;32853;52.164;5.400;2024-01-30T12:52:42;2.10;;;0.82;;
47103;SDS011;32853;52.164;5.400;2024-01-30T12:55:10;3.53;;;1.08;;
47103;SDS011;32853;52.164;5.400;2024-01-30T12:57:37;4.25;;;1.52;;
47103;SDS011;32853;52.164;5.400;2024-01-30T13:00:04;6.03;;;1.70;;
47103;SDS011;32853;52.164;5.400;2024-01-30T13:02:33;6.22;;;1.20;;
47103;SDS011;32853;52.164;5.400;2024-01-30T13:05:02;3.38;;;0.90;;
47103;SDS011;32853;52.164;5.400;2024-01-30T13:07:31;6.53;;;1.08;;
47103;SDS011;32853;52.164;5.400;2024-01-30T13:09:57;3.30;;;1.17;;
47103;SDS011;32853;52.164;5.400;2024-01-30T13:12:34;4.72;;;1.08;;
47103;SDS011;32853;52.164;5.400;2024-01-30T13:17:49;8.90;;;1.13;;
47103;SDS011;32853;52.164;5.400;2024-01-30T13:20:17;2.33;;;0.65;;
47103;SDS011;32853;52.164;5.400;2024-01-30T13:22:50;1.40;;;0.60;;
47103;SDS011;32853;52.164;5.400;2024-01-30T13:25:26;0.55;;;0.40;;
47103;SDS011;32853;52.164;5.400;2024-01-30T13:27:52;2.75;;;0.70;;
47103;SDS011;32853;52.164;5.400;2024-01-30T13:30:17;4.78;;;0.65;;
47103;SDS011;32853;52.164;5.400;2024-01-30T13:32:43;0.73;;;0.22;;
47103;SDS011;32853;52.164;5.400;2024-01-30T13:35:10;1.90;;;0.47;;
47103;SDS011;32853;52.164;5.400;2024-01-30T13:40:17;4.63;;;0.75;;
47103;SDS011;32853;52.164;5.400;2024-01-30T13:42:48;2.22;;;0.50;;
47103;SDS011;32853;52.164;5.400;2024-01-30T13:47:46;6.18;;;0.80;;
47103;SDS011;32853;52.164;5.400;2024-01-30T13:50:13;3.05;;;0.50;;
47103;SDS011;32853;52.164;5.400;2024-01-30T13:52:41;3.58;;;0.90;;
47103;SDS011;32853;52.164;5.400;2024-01-30T13:55:10;4.53;;;0.75;;
47103;SDS011;32853;52.164;5.400;2024-01-30T13:57:45;1.15;;;0.43;;
47103;SDS011;32853;52.164;5.400;2024-01-30T14:00:10;3.00;;;0.88;;
47103;SDS011;32853;52.164;5.400;2024-01-30T14:02:42;8.35;;;1.20;;
47103;SDS011;32853;52.164;5.400;2024-01-30T14:05:09;5.55;;;0.95;;
47103;SDS011;32853;52.164;5.400;2024-01-30T14:07:35;2.67;;;0.90;;
47103;SDS011;32853;52.164;5.400;2024-01-30T14:10:12;1.45;;;0.73;;
47103;SDS011;32853;52.164;5.400;2024-01-30T14:12:38;3.45;;;1.20;;
47103;SDS011;32853;52.164;5.400;2024-01-30T14:15:04;1.75;;;0.80;;
47103;SDS011;32853;52.164;5.400;2024-01-30T14:17:34;4.32;;;1.30;;
47103;SDS011;32853;52.164;5.400;2024-01-30T14:20:11;6.35;;;0.80;;
47103;SDS011;32853;52.164;5.400;2024-01-30T14:22:40;2.83;;;1.10;;
47103;SDS011;32853;52.164;5.400;2024-01-30T14:25:06;8.30;;;0.98;;
47103;SDS011;32853;52.164;5.400;2024-01-30T14:27:32;2.80;;;0.57;;
47103;SDS011;32853;52.164;5.400;2024-01-30T14:29:57;5.15;;;1.92;;
47103;SDS011;32853;52.164;5.400;2024-01-30T14:32:24;2.55;;;0.90;;
47103;SDS011;32853;52.164;5.400;2024-01-30T14:34:50;4.60;;;1.13;;
47103;SDS011;32853;52.164;5.400;2024-01-30T14:37:20;2.50;;;0.70;;
47103;SDS011;32853;52.164;5.400;2024-01-30T14:39:46;7.20;;;2.05;;
47103;SDS011;32853;52.164;5.400;2024-01-30T14:44:47;8.73;;;1.15;;
47103;SDS011;32853;52.164;5.400;2024-01-30T14:47:16;1.90;;;0.70;;
47103;SDS011;32853;52.164;5.400;2024-01-30T14:49:57;1.92;;;0.85;;
47103;SDS011;32853;52.164;5.400;2024-01-30T14:52:24;2.92;;;1.02;;
47103;SDS011;32853;52.164;5.400;2024-01-30T14:54:53;2.05;;;1.45;;
47103;SDS011;32853;52.164;5.400;2024-01-30T14:57:19;9.15;;;1.65;;
47103;SDS011;32853;52.164;5.400;2024-01-30T14:59:44;1.85;;;1.00;;
47103;SDS011;32853;52.164;5.400;2024-01-30T15:02:10;9.07;;;1.38;;
47103;SDS011;32853;52.164;5.400;2024-01-30T15:04:37;1.42;;;1.02;;
47103;SDS011;32853;52.164;5.400;2024-01-30T15:07:05;2.90;;;1.60;;
47103;SDS011;32853;52.164;5.400;2024-01-30T15:09:34;2.17;;;1.30;;
47103;SDS011;32853;52.164;5.400;2024-01-30T15:12:00;2.88;;;2.13;;
47103;SDS011;32853;52.164;5.400;2024-01-30T15:14:41;2.95;;;2.10;;
47103;SDS011;32853;52.164;5.400;2024-01-30T15:17:15;8.25;;;1.63;;
47103;SDS011;32853;52.164;5.400;2024-01-30T15:19:41;4.85;;;2.53;;
47103;SDS011;32853;52.164;5.400;2024-01-30T15:22:15;4.70;;;2.78;;
47103;SDS011;32853;52.164;5.400;2024-01-30T15:24:48;4.72;;;2.38;;
47103;SDS011;32853;52.164;5.400;2024-01-30T15:27:19;4.90;;;2.13;;
47103;SDS011;32853;52.164;5.400;2024-01-30T15:29:45;8.97;;;2.63;;
47103;SDS011;32853;52.164;5.400;2024-01-30T15:32:11;6.15;;;2.58;;
47103;SDS011;32853;52.164;5.400;2024-01-30T15:34:36;10.68;;;2.70;;
47103;SDS011;32853;52.164;5.400;2024-01-30T15:37:08;3.15;;;2.55;;
47103;SDS011;32853;52.164;5.400;2024-01-30T15:39:33;4.32;;;2.42;;
47103;SDS011;32853;52.164;5.400;2024-01-30T15:41:58;7.57;;;3.05;;
47103;SDS011;32853;52.164;5.400;2024-01-30T15:44:24;4.32;;;2.30;;
47103;SDS011;32853;52.164;5.400;2024-01-30T15:46:49;3.65;;;2.50;;